KGLE/GLE METAR and TAF weather

Enter ICAO airport designator
Station Type Date Time Source
KGLE METAR 2018/12/19 03:15 UTC NOAA

KGLE 190315Z AUTO 17004KT 10SM CLR 08/06 A3000 RMK AO2 T00840056


Station Type Date Time Source
KGLE Decoded METAR 2018/12/19 03:15 UTC NOAA

Gainesville, Gainesville Municipal Airport, TX, United States (KGLE) 33-39-05N 097-11-49W
Dec 18, 2018 - 10:15 PM EST / 2018.12.19 0315 UTC
Wind: from the S (170 degrees) at 5 MPH (4 KT):0
Visibility: 10 mile(s):0
Sky conditions: clear
Temperature: 47.1 F (8.4 C)
Dew Point: 42.1 F (5.6 C)
Relative Humidity: 82%
Pressure (altimeter): 30 in. Hg (1015 hPa)
ob: KGLE 190315Z AUTO 17004KT 10SM CLR 08/06 A3000 RMK AO2 T00840056
cycle: 3

Station Type Date Time Source
KGLE TAF UTC NOAA

Error!


Example: see airport list